Time;durP1;ratioP1;P1;durP2;ratioP2;P2;SDS_P1;SDS_P2;PMS_P1;PMS_P2;Temp;Humidity;BMP_temperature;BMP_pressure;BME280_temperature;BME280_humidity;BME280_pressure;Samples;Min_cycle;Max_cycle;Signal;HPM_P1;HPM_P2
2021/05/20 00:00:49;;;;;;;5.70;4.22;;;9.90;75.70;;;9.18;60.59;94906.88;5073777;28;20212;-82
2021/05/20 00:03:16;;;;;;;4.30;3.83;;;9.90;75.70;;;9.11;60.25;94893.69;5064420;28;20220;-83
2021/05/20 00:05:43;;;;;;;5.22;4.72;;;9.80;75.60;;;9.06;60.59;94893.44;4976513;28;20208;-83
2021/05/20 00:08:09;;;;;;;4.40;4.00;;;9.80;75.70;;;9.10;60.47;94904.34;4798023;29;20251;-83
2021/05/20 00:12:08;;;;;;;6.35;4.40;;;9.70;75.60;;;9.00;60.76;94893.38;5149519;27;20635;-80
2021/05/20 00:14:35;;;;;;;5.03;4.03;;;9.70;75.60;;;9.02;60.39;94902.66;5106631;28;20236;-81
2021/05/20 00:17:01;;;;;;;5.35;4.38;;;9.70;75.50;;;9.00;60.71;94904.63;5078295;28;20227;-82
2021/05/20 00:19:28;;;;;;;5.90;4.53;;;9.60;75.50;;;8.99;60.83;94912.66;5018343;28;20228;-80
2021/05/20 00:21:55;;;;;;;6.20;4.30;;;9.60;75.50;;;8.91;60.75;94900.47;4999624;28;20202;-80
2021/05/20 00:24:21;;;;;;;4.30;3.90;;;9.60;75.50;;;8.94;60.45;94908.78;4922429;28;20374;-81
2021/05/20 00:26:48;;;;;;;5.30;4.40;;;9.60;75.50;;;8.94;60.36;94914.00;4864615;29;20214;-81
2021/05/20 00:29:14;;;;;;;4.93;3.90;;;9.50;75.40;;;8.88;60.57;94906.88;4762520;29;20267;-81
2021/05/20 00:33:34;;;;;;;4.68;3.80;;;9.50;75.40;;;8.86;60.51;94908.06;5138100;27;20574;-81
2021/05/20 00:36:02;;;;;;;4.93;3.97;;;9.50;75.50;;;8.84;61.01;94908.25;5117753;28;20567;-82
2021/05/20 00:38:29;;;;;;;4.72;3.92;;;9.50;75.50;;;8.81;60.39;94906.81;5071103;28;20296;-82
2021/05/20 00:41:02;;;;;;;4.88;3.65;;;9.50;75.40;;;8.81;60.35;94908.59;5049512;28;20214;-81
2021/05/20 00:43:29;;;;;;;6.85;4.25;;;9.40;76.40;;;8.79;60.43;94900.94;5024135;28;20295;-84
2021/05/20 00:45:56;;;;;;;4.63;4.00;;;9.40;76.20;;;8.80;60.55;94909.59;4951902;28;20578;-83
2021/05/20 00:48:23;;;;;;;4.57;4.03;;;9.40;75.40;;;8.78;60.73;94907.16;4805998;29;20236;-82
2021/05/20 00:50:50;;;;;;;4.65;4.13;;;9.40;75.40;;;8.75;60.64;94904.09;4628073;30;20287;-81
2021/05/20 00:55:49;;;;;;;5.97;3.85;;;9.40;75.50;;;8.74;61.28;94916.38;5150707;27;20731;-82
2021/05/20 00:58:17;;;;;;;6.18;4.32;;;9.40;75.70;;;8.72;61.17;94909.69;5049796;28;20230;-81
2021/05/20 01:00:44;;;;;;;5.05;4.55;;;9.40;75.90;;;8.73;61.58;94914.75;5067075;28;20272;-82
2021/05/20 01:03:11;;;;;;;5.22;4.30;;;9.40;76.00;;;8.74;61.41;94913.75;5043889;28;20711;-82
2021/05/20 01:05:37;;;;;;;5.95;4.82;;;9.40;76.00;;;8.73;61.10;94927.03;4986866;28;20261;-83
2021/05/20 01:08:05;;;;;;;5.22;4.60;;;9.40;76.00;;;8.72;60.82;94922.78;4919658;28;20712;-82
2021/05/20 01:10:31;;;;;;;4.72;4.13;;;9.30;75.90;;;8.70;61.03;94914.28;4807469;29;20217;-84
2021/05/20 01:12:58;;;;;;;4.97;4.32;;;9.30;76.00;;;8.70;61.51;94920.31;4674446;30;20720;-83
2021/05/20 01:17:13;;;;;;;5.78;4.15;;;9.30;76.00;;;8.68;61.83;94924.94;5141464;27;20639;-80
2021/05/20 01:19:43;;;;;;;5.13;4.18;;;9.40;76.10;;;8.68;61.15;94927.56;5118854;28;20205;-81
2021/05/20 01:22:10;;;;;;;6.10;4.43;;;9.30;76.10;;;8.69;61.33;94929.19;5071926;28;20206;-82
2021/05/20 01:24:37;;;;;;;4.47;4.03;;;9.30;76.20;;;8.68;61.21;94930.16;5044906;28;20208;-82
2021/05/20 01:27:06;;;;;;;4.18;3.78;;;9.30;77.00;;;8.69;60.99;94931.78;5010188;28;20788;-81
2021/05/20 01:29:34;;;;;;;4.85;3.85;;;9.30;76.20;;;8.69;61.00;94938.81;4953082;28;20215;-81
2021/05/20 01:32:03;;;;;;;4.50;4.10;;;9.30;76.20;;;8.68;61.23;94931.94;4878115;28;20223;-83
2021/05/20 01:34:34;;;;;;;5.07;4.50;;;9.30;76.20;;;8.64;61.39;94932.31;4684311;30;20237;-83
2021/05/20 01:37:12;;;;;;;4.38;3.97;;;9.30;76.20;;;8.63;61.69;94935.94;5148863;27;21144;-80
2021/05/20 01:39:39;;;;;;;4.80;4.30;;;9.30;76.20;;;8.62;61.18;94934.31;5072388;28;20195;-81
2021/05/20 01:42:06;;;;;;;4.72;4.32;;;9.20;76.10;;;8.60;61.80;94943.31;5048548;28;20215;-81
2021/05/20 01:44:32;;;;;;;5.05;4.35;;;9.20;76.20;;;8.54;61.64;94930.97;5037582;28;20242;-81
2021/05/20 01:46:59;;;;;;;6.07;4.28;;;9.30;76.40;;;8.56;61.43;94932.41;5015764;28;20659;-80
2021/05/20 01:49:26;;;;;;;4.97;4.05;;;9.20;76.20;;;8.51;61.50;94937.34;4869699;29;20325;-81
2021/05/20 01:51:52;;;;;;;4.47;4.00;;;9.20;76.20;;;8.46;61.47;94939.66;4786885;29;20227;-81
2021/05/20 01:54:19;;;;;;;6.15;4.43;;;9.20;76.00;;;8.45;61.41;94938.84;4693489;29;20636;-81
2021/05/20 01:58:39;;;;;;;6.45;4.30;;;9.20;76.20;;;8.41;61.14;94941.97;5137175;27;20654;-80
2021/05/20 02:01:06;;;;;;;6.38;4.35;;;9.10;76.00;;;8.37;61.76;94944.13;5053091;28;20206;-81
2021/05/20 02:03:36;;;;;;;5.30;4.32;;;9.10;76.20;;;8.29;61.29;94939.00;5097953;28;20217;-81
2021/05/20 02:06:04;;;;;;;4.88;4.38;;;9.10;76.30;;;8.31;61.62;94945.69;5030856;28;20216;-81
2021/05/20 02:08:33;;;;;;;4.85;4.28;;;9.00;76.30;;;8.28;61.27;94940.78;4986213;28;20232;-81
2021/05/20 02:11:01;;;;;;;4.82;4.15;;;9.00;76.30;;;8.27;61.45;94941.78;4928795;28;20675;-81
2021/05/20 02:13:29;;;;;;;4.78;4.25;;;9.00;76.30;;;8.25;61.40;94943.78;4877011;29;20322;-83
2021/05/20 02:15:55;;;;;;;4.50;4.10;;;8.90;76.30;;;8.24;61.84;94943.91;4755110;29;20210;-81
2021/05/20 02:19:50;;;;;;;5.30;4.13;;;8.90;76.30;;;8.16;60.89;94936.97;5150666;27;20953;-81
2021/05/20 02:22:16;;;;;;;5.03;4.22;;;8.90;76.20;;;8.17;61.38;94944.63;5104430;27;20201;-82
2021/05/20 02:24:43;;;;;;;5.30;4.18;;;8.90;76.30;;;8.17;61.36;94941.22;5069482;28;20203;-81
2021/05/20 02:27:10;;;;;;;5.30;4.78;;;8.80;76.30;;;8.15;62.06;94945.78;5052999;28;20569;-81
2021/05/20 02:29:36;;;;;;;5.35;4.78;;;8.80;76.50;;;8.12;62.04;94944.34;5007871;28;20563;-81
2021/05/20 02:32:03;;;;;;;5.45;4.60;;;8.80;76.60;;;8.11;62.57;94939.31;4948578;28;20212;-82
2021/05/20 02:34:29;;;;;;;5.80;4.50;;;8.80;76.70;;;8.15;62.56;94956.25;4828333;29;20273;-81
2021/05/20 02:36:56;;;;;;;5.00;4.60;;;8.80;76.70;;;8.14;62.63;94959.84;4698538;29;20295;-81
2021/05/20 02:41:48;;;;;;;5.00;4.50;;;8.80;76.90;;;8.12;62.78;94957.41;5139672;27;20960;-82
2021/05/20 02:44:14;;;;;;;7.15;4.63;;;8.80;77.00;;;8.10;62.67;94967.22;5104568;28;20222;-82
2021/05/20 02:46:42;;;;;;;5.03;4.53;;;8.70;77.00;;;8.07;62.39;94961.53;5046103;28;20588;-81
2021/05/20 02:49:08;;;;;;;4.95;4.40;;;8.70;76.90;;;8.03;62.13;94963.69;5055182;28;20267;-81
2021/05/20 02:51:35;;;;;;;4.95;4.32;;;8.80;77.00;;;8.05;62.63;94960.91;5070942;28;20210;-81
2021/05/20 02:54:01;;;;;;;6.57;4.75;;;8.70;76.90;;;8.05;62.52;94969.56;4954274;28;20231;-81
2021/05/20 02:56:28;;;;;;;5.10;4.60;;;8.70;77.00;;;7.99;62.71;94960.59;4911342;29;20650;-81
2021/05/20 02:58:55;;;;;;;4.88;4.38;;;8.70;77.10;;;8.00;63.03;94970.06;4805657;29;20249;-81
2021/05/20 03:03:28;;;;;;;4.68;4.18;;;8.70;77.10;;;7.96;63.51;94965.38;5137754;27;20636;-82
2021/05/20 03:05:58;;;;;;;5.38;4.43;;;8.70;77.30;;;7.97;63.46;94966.97;5084684;28;20209;-82
2021/05/20 03:08:25;;;;;;;6.38;4.30;;;8.70;77.50;;;7.91;63.79;94963.28;5070064;28;20222;-82
2021/05/20 03:10:51;;;;;;;4.85;4.35;;;8.70;77.50;;;7.93;63.86;94971.75;5092312;28;20290;-81
2021/05/20 03:13:18;;;;;;;5.68;4.90;;;8.60;77.50;;;7.92;63.74;94977.97;5040544;28;20311;-82
2021/05/20 03:15:44;;;;;;;7.43;4.70;;;8.60;77.60;;;7.95;63.93;94982.84;4964980;28;20214;-81
2021/05/20 03:18:11;;;;;;;4.82;4.32;;;8.60;77.70;;;7.97;64.04;94980.03;4813669;28;20228;-81
2021/05/20 03:20:38;;;;;;;4.57;4.18;;;8.60;77.70;;;7.93;63.68;94974.34;4776124;29;20877;-81
2021/05/20 03:24:56;;;;;;;5.32;4.57;;;8.60;77.70;;;7.97;63.93;94995.72;5149546;27;21162;-83
2021/05/20 03:27:22;;;;;;;5.40;4.50;;;8.70;77.90;;;8.00;63.73;94992.78;5109324;27;20295;-81
2021/05/20 03:29:49;;;;;;;5.13;4.63;;;8.60;77.90;;;8.02;63.90;94990.81;5050553;28;20611;-81
2021/05/20 03:32:16;;;;;;;4.45;4.00;;;8.60;78.00;;;8.07;63.91;94998.09;5046953;28;20211;-81
2021/05/20 03:34:42;;;;;;;5.75;4.55;;;8.70;78.30;;;8.10;64.39;94989.94;5027353;28;20219;-81
2021/05/20 03:37:09;;;;;;;4.88;4.22;;;8.70;78.50;;;8.19;64.00;95001.97;4964037;28;20203;-81
2021/05/20 03:39:35;;;;;;;5.32;4.35;;;8.70;78.50;;;8.27;64.26;95001.06;4906440;28;20312;-81
2021/05/20 03:42:03;;;;;;;5.03;4.30;;;8.80;78.70;;;8.32;64.15;95002.19;4811031;29;20267;-80
2021/05/20 03:45:36;;;;;;;5.07;4.07;;;8.80;78.80;;;8.37;63.81;95003.44;5147464;27;20971;-81
2021/05/20 03:48:03;;;;;;;4.93;4.30;;;8.90;78.60;;;8.42;63.90;94995.88;5092124;28;20219;-80
2021/05/20 03:50:30;;;;;;;4.93;4.43;;;8.90;78.70;;;8.45;63.93;94992.94;5077348;28;20215;-81
2021/05/20 03:53:01;;;;;;;4.70;4.22;;;9.00;78.70;;;8.48;63.95;94995.22;5039396;28;20223;-81
2021/05/20 03:55:28;;;;;;;4.78;4.28;;;9.10;78.90;;;8.51;63.86;95000.09;5063531;28;20658;-81
2021/05/20 03:57:55;;;;;;;4.55;3.85;;;9.10;78.70;;;8.59;64.03;95009.66;4991780;28;20222;-81
2021/05/20 04:00:22;;;;;;;4.50;3.83;;;9.10;78.80;;;8.64;63.63;95012.56;4982190;28;20208;-81
2021/05/20 04:02:49;;;;;;;5.32;4.00;;;9.10;78.70;;;8.69;64.34;95017.25;4774363;29;20250;-81
2021/05/20 04:06:18;;;;;;;4.40;4.00;;;9.10;78.80;;;8.75;63.93;95012.16;5134927;27;20622;-82
2021/05/20 04:08:45;;;;;;;4.38;3.97;;;9.20;78.80;;;8.81;63.38;95007.97;5093950;28;20209;-83
2021/05/20 04:11:12;;;;;;;4.15;3.75;;;9.30;78.90;;;8.88;63.57;95013.31;5092125;28;20262;-83
2021/05/20 04:13:43;;;;;;;4.28;3.63;;;9.30;78.80;;;8.89;63.57;95018.38;5073713;28;20235;-83
2021/05/20 04:16:14;;;;;;;3.78;3.40;;;9.30;78.90;;;8.93;63.40;95017.00;4958885;28;20220;-83
2021/05/20 04:18:41;;;;;;;4.95;3.55;;;9.40;78.70;;;8.97;63.56;95023.53;4922264;29;20264;-81
2021/05/20 04:21:08;;;;;;;3.92;3.53;;;9.40;78.60;;;9.01;63.61;95018.75;4797075;29;20214;-81
2021/05/20 04:23:34;;;;;;;5.15;3.58;;;9.40;78.60;;;9.10;63.68;95024.72;4683263;30;20245;-81
2021/05/20 04:28:00;;;;;;;4.40;3.65;;;9.50;78.90;;;9.24;63.73;95028.31;5143793;27;20584;-82
2021/05/20 04:30:26;;;;;;;4.15;3.75;;;9.70;79.10;;;9.36;63.90;95034.75;5139808;27;20204;-82
2021/05/20 04:32:54;;;;;;;4.40;3.90;;;9.70;79.30;;;9.50;63.87;95040.16;5081103;28;20326;-81
2021/05/20 04:35:20;;;;;;;4.65;4.18;;;9.80;79.50;;;9.55;64.47;95032.56;5083922;28;20294;-79
2021/05/20 04:37:47;;;;;;;5.63;3.95;;;9.90;79.50;;;9.61;64.09;95035.25;5018881;28;20241;-80
2021/05/20 04:40:15;;;;;;;3.58;3.28;;;10.00;78.20;;;9.67;63.48;95048.63;4961679;28;20214;-83
2021/05/20 04:42:42;;;;;;;3.75;3.35;;;10.00;78.00;;;9.71;63.33;95045.44;4980047;28;20234;-82
2021/05/20 04:45:10;;;;;;;5.93;3.58;;;10.00;77.80;;;9.71;63.62;95042.81;4836037;28;20565;-82
2021/05/20 04:48:58;;;;;;;3.53;3.22;;;10.10;77.10;;;9.81;63.37;95054.84;5110319;27;20589;-80
2021/05/20 04:51:25;;;;;;;4.82;3.25;;;10.20;77.70;;;9.85;63.41;95041.19;5093345;28;20212;-79
2021/05/20 04:53:52;;;;;;;3.30;3.00;;;10.30;77.80;;;9.92;63.13;95038.63;5078702;28;20290;-82
2021/05/20 04:56:22;;;;;;;4.95;3.15;;;10.30;77.80;;;9.94;63.07;95040.06;5024887;28;20655;-80
2021/05/20 04:58:50;;;;;;;3.83;3.33;;;10.30;77.70;;;10.00;63.12;95037.72;4973687;28;20231;-81
2021/05/20 05:01:16;;;;;;;3.10;2.80;;;10.40;77.70;;;10.08;63.09;95046.28;4877210;29;20220;-81
2021/05/20 05:03:43;;;;;;;3.80;3.38;;;10.40;77.70;;;10.12;63.34;95044.09;4739157;29;20623;-81
2021/05/20 05:06:10;;;;;;;3.30;3.00;;;10.40;77.70;;;10.20;62.93;95054.44;4598292;30;20226;-81
2021/05/20 05:10:41;;;;;;;2.95;2.50;;;10.50;77.80;;;10.29;62.92;95043.84;5135862;27;20629;-83
2021/05/20 05:13:09;;;;;;;3.08;2.75;;;10.60;77.60;;;10.35;62.70;95043.94;5090788;28;20260;-82
2021/05/20 05:15:35;;;;;;;5.03;2.67;;;10.70;77.70;;;10.45;62.32;95051.53;5062786;28;20211;-81
2021/05/20 05:18:02;;;;;;;3.10;2.80;;;10.70;77.70;;;10.50;62.56;95045.72;5008948;28;20788;-80
2021/05/20 05:20:29;;;;;;;3.55;3.25;;;10.70;77.60;;;10.57;62.62;95043.97;4944373;28;20670;-81
2021/05/20 05:22:56;;;;;;;3.15;2.85;;;10.80;77.70;;;10.66;62.57;95045.44;4867289;29;20254;-82
2021/05/20 05:25:22;;;;;;;3.58;2.97;;;10.90;77.70;;;10.70;62.50;95036.19;4854423;29;20210;-82
2021/05/20 05:27:49;;;;;;;4.18;3.00;;;10.90;77.90;;;10.81;62.83;95045.34;4727165;29;20243;-82
2021/05/20 05:32:08;;;;;;;2.70;2.50;;;11.00;77.80;;;11.00;62.14;95043.09;5141087;27;21136;-82
2021/05/20 05:34:35;;;;;;;3.75;2.78;;;11.20;77.90;;;11.11;62.25;95036.47;5057379;28;20203;-81
2021/05/20 05:37:02;;;;;;;4.22;2.60;;;11.30;77.80;;;11.16;62.03;95037.53;5064873;28;20218;-83
2021/05/20 05:39:29;;;;;;;2.85;2.53;;;11.30;77.50;;;11.23;61.38;95045.47;5006710;28;20227;-81
2021/05/20 05:41:56;;;;;;;4.43;2.90;;;11.40;77.40;;;11.25;61.67;95040.03;4986822;28;20225;-80
2021/05/20 05:44:22;;;;;;;3.42;2.60;;;11.40;77.20;;;11.20;61.31;95046.66;4879379;29;20257;-81
2021/05/20 05:46:49;;;;;;;2.80;2.53;;;11.50;76.90;;;11.28;61.33;95052.75;4857976;29;20352;-80
2021/05/20 05:52:21;;;;;;;4.25;2.88;;;11.60;76.70;;;11.25;61.23;95053.94;5136281;27;20323;-81
2021/05/20 05:54:51;;;;;;;3.65;2.80;;;11.60;76.40;;;11.25;60.89;95064.44;5089510;28;20205;-82
2021/05/20 05:57:18;;;;;;;3.00;2.70;;;11.60;76.30;;;11.26;61.39;95060.81;5089534;28;20243;-82
2021/05/20 05:59:47;;;;;;;2.70;2.50;;;11.60;76.50;;;11.30;61.37;95069.97;5071811;28;20663;-82
2021/05/20 06:02:14;;;;;;;5.57;3.30;;;11.60;76.60;;;11.37;61.17;95072.63;5038915;28;20757;-82
2021/05/20 06:04:40;;;;;;;3.58;3.03;;;11.70;76.60;;;11.40;61.50;95077.50;4983607;28;20212;-81
2021/05/20 06:07:07;;;;;;;2.85;2.65;;;11.80;76.80;;;11.47;61.26;95073.06;4916616;28;20221;-82
2021/05/20 06:09:33;;;;;;;2.88;2.60;;;11.70;76.90;;;11.60;61.47;95071.53;4792887;29;20249;-82
2021/05/20 06:12:59;;;;;;;3.25;2.90;;;11.80;77.00;;;11.75;61.07;95080.09;5127422;27;20596;-81
2021/05/20 06:15:26;;;;;;;2.60;2.40;;;11.80;77.00;;;11.88;61.27;95075.91;5073129;28;20221;-81
2021/05/20 06:17:53;;;;;;;3.08;2.75;;;12.00;77.10;;;11.99;60.87;95083.28;5068243;28;20252;-82
2021/05/20 06:20:20;;;;;;;3.78;3.25;;;12.10;77.20;;;12.06;60.56;95076.22;5023087;28;20549;-81
2021/05/20 06:22:47;;;;;;;3.35;2.97;;;12.20;76.90;;;12.14;60.55;95075.22;4979530;28;20242;-82
2021/05/20 06:25:14;;;;;;;4.03;3.40;;;12.20;76.70;;;12.19;60.37;95074.66;4903766;29;20206;-82
2021/05/20 06:27:41;;;;;;;3.00;2.70;;;12.30;76.60;;;12.25;60.52;95069.38;4836104;29;20227;-81
2021/05/20 06:30:08;;;;;;;4.47;3.03;;;12.40;76.70;;;12.31;60.25;95073.84;4658928;30;20319;-81
2021/05/20 06:34:25;;;;;;;2.50;2.30;;;12.40;76.30;;;12.41;60.09;95093.72;5123972;27;20587;-82
2021/05/20 06:36:57;;;;;;;2.80;2.60;;;12.50;76.40;;;12.46;59.92;95091.28;5103375;28;20279;-81
2021/05/20 06:39:24;;;;;;;4.00;3.20;;;12.70;76.50;;;12.49;60.09;95080.38;5082678;28;20232;-80
2021/05/20 06:41:51;;;;;;;3.00;2.67;;;12.70;76.50;;;12.70;60.34;95091.75;5052336;28;20654;-81
2021/05/20 06:44:17;;;;;;;2.83;2.42;;;12.70;76.50;;;12.91;60.25;95080.22;5026685;28;20223;-80
2021/05/20 06:46:45;;;;;;;3.65;3.35;;;12.90;77.00;;;13.12;59.91;95082.66;5012619;28;20212;-81
2021/05/20 06:49:11;;;;;;;3.85;2.50;;;13.10;76.80;;;13.36;59.38;95074.34;4938085;28;20236;-81
2021/05/20 06:51:38;;;;;;;3.40;3.10;;;13.10;76.80;;;13.53;59.78;95080.00;4794958;29;20326;-81
2021/05/20 06:56:08;;;;;;;3.63;2.40;;;13.40;77.00;;;13.81;59.20;95077.09;5150665;27;20760;-81
2021/05/20 07:01:21;;;;;;;3.25;2.95;;;13.80;76.10;;;13.90;57.93;95085.59;5023638;28;20207;-81
2021/05/20 07:04:01;;;;;;;4.05;3.30;;;13.90;75.50;;;13.86;57.55;95093.09;5021094;28;20697;-82
2021/05/20 07:06:48;;;;;;;3.30;3.00;;;13.90;75.00;;;13.76;57.22;95085.63;4943678;28;20291;-81
2021/05/20 07:09:25;;;;;;;2.95;2.75;;;13.90;74.60;;;13.69;57.76;95092.72;4865098;29;20267;-80
2021/05/20 07:11:52;;;;;;;4.75;3.05;;;13.90;74.60;;;13.63;57.75;95093.56;4702649;30;20230;-81
2021/05/20 07:17:03;;;;;;;3.05;2.75;;;13.90;74.60;;;13.49;57.97;95095.44;5147901;27;20651;-81
2021/05/20 07:19:29;;;;;;;3.33;2.95;;;13.80;74.40;;;13.48;57.87;95096.44;5093826;28;20278;-81
2021/05/20 07:21:56;;;;;;;3.42;3.03;;;13.80;74.30;;;13.40;58.27;95109.81;5076621;28;20634;-81
2021/05/20 07:24:23;;;;;;;3.20;2.92;;;13.70;74.20;;;13.35;57.72;95109.59;5120701;27;20693;-80
2021/05/20 07:26:52;;;;;;;3.05;2.60;;;13.80;74.30;;;13.32;57.88;95102.09;5091770;28;20578;-81
2021/05/20 07:29:19;;;;;;;3.30;3.00;;;13.70;74.40;;;13.31;57.85;95101.28;4983661;28;20828;-80
2021/05/20 07:31:46;;;;;;;3.40;3.10;;;13.60;74.30;;;13.32;58.07;95099.44;4932251;28;20204;-80
2021/05/20 07:34:13;;;;;;;3.72;3.42;;;13.70;74.50;;;13.31;57.65;95111.03;4748109;29;20230;-81
2021/05/20 07:37:43;;;;;;;4.15;3.00;;;13.60;74.30;;;13.23;57.70;95101.50;5145257;27;20656;-81
2021/05/20 07:40:12;;;;;;;3.30;3.00;;;13.60;74.10;;;13.26;57.64;95112.44;5099829;28;20266;-82
2021/05/20 07:42:39;;;;;;;3.60;2.80;;;13.60;74.20;;;13.27;57.87;95106.16;5090076;28;20229;-81
2021/05/20 07:45:07;;;;;;;4.30;2.97;;;13.60;74.30;;;13.36;58.01;95104.13;5062309;28;20252;-81
2021/05/20 07:47:34;;;;;;;3.28;2.97;;;13.60;74.70;;;13.55;58.42;95099.88;4997961;28;20270;-80
2021/05/20 07:50:00;;;;;;;3.53;3.15;;;13.70;75.30;;;13.79;58.46;95102.06;4887809;29;20232;-80
2021/05/20 07:52:27;;;;;;;3.90;3.50;;;13.80;75.40;;;14.03;57.50;95096.09;4829445;29;20235;-81
2021/05/20 07:54:56;;;;;;;3.60;3.30;;;13.80;75.20;;;14.27;56.93;95100.84;4757836;29;20218;-81
2021/05/20 07:58:54;;;;;;;4.25;3.33;;;14.00;75.20;;;14.60;56.34;95103.34;5134714;27;20557;-81
2021/05/20 08:01:21;;;;;;;3.47;3.17;;;14.30;75.00;;;14.81;56.35;95098.78;5085072;28;20288;-81
2021/05/20 08:03:56;;;;;;;3.45;3.15;;;14.50;75.00;;;15.05;56.66;95103.25;5092646;28;20817;-81
2021/05/20 08:06:27;;;;;;;3.67;3.22;;;14.70;75.30;;;15.18;56.28;95099.72;5091950;28;20606;-81
2021/05/20 08:09:01;;;;;;;4.85;3.40;;;14.80;74.70;;;15.36;56.02;95093.66;5027402;28;20224;-81
2021/05/20 08:11:29;;;;;;;3.50;3.20;;;15.00;74.40;;;15.49;54.57;95097.19;4990092;28;20241;-82
2021/05/20 08:13:56;;;;;;;3.45;3.10;;;15.10;73.90;;;15.58;55.35;95095.09;4884955;29;20602;-81
2021/05/20 08:16:24;;;;;;;3.80;3.10;;;15.30;74.00;;;15.68;54.56;95098.88;4723556;29;20222;-81
2021/05/20 08:19:01;;;;;;;3.58;2.92;;;15.40;73.20;;;15.80;54.21;95098.13;5122608;27;20324;-80
2021/05/20 08:21:28;;;;;;;3.78;3.05;;;15.50;72.70;;;15.81;53.87;95089.16;5067599;28;20238;-82
2021/05/20 08:23:55;;;;;;;3.90;2.75;;;15.60;72.60;;;15.88;54.27;95092.59;5093739;28;20237;-81
2021/05/20 08:26:25;;;;;;;3.90;3.40;;;15.70;72.30;;;15.91;52.88;95094.78;5082641;28;20238;-80
2021/05/20 08:28:53;;;;;;;3.88;3.08;;;15.80;71.80;;;16.07;53.93;95096.00;5053169;28;20220;-81
2021/05/20 08:31:20;;;;;;;4.43;2.75;;;15.90;72.30;;;16.28;54.06;95088.63;5009473;28;20207;-82
2021/05/20 08:33:46;;;;;;;4.28;3.20;;;16.00;72.80;;;16.48;54.46;95094.50;4899405;28;20278;-81
2021/05/20 08:36:13;;;;;;;5.38;3.08;;;16.10;73.10;;;16.70;53.69;95087.88;4764300;29;20221;-81
2021/05/20 08:40:30;;;;;;;3.70;3.17;;;16.20;72.80;;;17.12;52.61;95090.53;5132956;27;20663;-80
2021/05/20 08:42:58;;;;;;;3.17;2.88;;;16.50;72.00;;;17.38;52.59;95083.19;5067287;28;20218;-81
2021/05/20 08:45:28;;;;;;;3.40;3.10;;;16.70;72.20;;;17.59;51.73;95079.97;5044762;28;20555;-80
2021/05/20 08:47:56;;;;;;;3.42;2.88;;;16.90;72.70;;;17.75;51.49;95081.09;5028082;28;20238;-81
2021/05/20 08:50:27;;;;;;;2.85;2.50;;;17.10;71.70;;;17.95;52.25;95090.56;4939290;28;20281;-80
2021/05/20 08:52:54;;;;;;;4.53;2.88;;;17.40;71.80;;;18.00;51.20;95087.22;4840989;29;20555;-80
2021/05/20 08:55:33;;;;;;;4.88;2.80;;;17.50;70.90;;;18.03;50.07;95095.50;4785320;29;20245;-81
2021/05/20 08:58:56;;;;;;;5.30;3.47;;;17.60;70.10;;;17.85;49.24;95085.00;5135149;27;20660;-81
2021/05/20 09:01:39;;;;;;;3.95;2.97;;;17.80;69.30;;;17.86;49.85;95091.94;5102769;28;20210;-81
2021/05/20 09:04:08;;;;;;;4.00;2.92;;;17.70;69.00;;;17.90;49.09;95087.78;5063445;28;20226;-81
2021/05/20 09:06:41;;;;;;;3.40;3.10;;;17.80;68.70;;;17.93;49.84;95092.59;5038627;28;20200;-81
2021/05/20 09:09:13;;;;;;;3.35;2.83;;;17.90;68.60;;;17.96;50.06;95092.16;5045857;28;20222;-82
2021/05/20 09:11:56;;;;;;;4.78;3.03;;;17.90;69.10;;;17.91;49.85;95089.38;4985644;28;20220;-81
2021/05/20 09:14:35;;;;;;;4.10;3.13;;;17.90;68.60;;;17.82;49.50;95088.94;4863600;29;20232;-82
2021/05/20 09:18:28;;;;;;;5.70;3.50;;;17.90;68.20;;;17.76;50.56;95093.31;5142014;27;20647;-81
2021/05/20 09:20:58;;;;;;;3.72;3.38;;;17.80;68.80;;;17.70;49.87;95088.94;5078952;27;20206;-82
2021/05/20 09:23:28;;;;;;;4.00;3.50;;;17.80;68.20;;;17.71;49.26;95093.22;5073191;28;20275;-80
2021/05/20 09:26:07;;;;;;;4.13;3.50;;;17.70;67.90;;;17.80;50.07;95088.38;5067493;28;20217;-81
2021/05/20 09:28:43;;;;;;;5.10;3.50;;;17.80;68.40;;;17.91;49.14;95089.38;5018321;28;20232;-81
2021/05/20 09:31:14;;;;;;;4.28;3.88;;;17.70;67.60;;;17.99;47.77;95093.56;4996017;28;20200;-84
2021/05/20 09:33:54;;;;;;;3.42;3.13;;;17.80;67.50;;;18.17;48.52;95096.03;4823418;29;20329;-81
2021/05/20 09:39:12;;;;;;;2.97;2.72;;;17.90;68.50;;;18.50;48.62;95101.72;5133763;27;20660;-82
2021/05/20 09:41:39;;;;;;;4.13;3.25;;;18.10;67.90;;;18.52;48.23;95091.69;5089358;28;20204;-81
2021/05/20 09:44:29;;;;;;;3.90;3.00;;;18.20;67.80;;;18.52;48.25;95107.63;5104496;28;20244;-82
2021/05/20 09:46:57;;;;;;;3.00;2.45;;;18.30;67.60;;;18.50;47.89;95115.78;5003936;28;20278;-82
2021/05/20 09:49:25;;;;;;;3.83;2.33;;;18.30;67.30;;;18.44;47.75;95116.75;4989611;28;20620;-81
2021/05/20 09:52:22;;;;;;;2.92;2.10;;;18.30;66.80;;;18.38;47.11;95110.53;4953586;28;20221;-81
2021/05/20 09:54:51;;;;;;;2.00;1.77;;;18.30;67.60;;;18.30;46.68;95134.00;4776537;29;20235;-82
2021/05/20 09:57:25;;;;;;;1.88;1.67;;;18.40;66.30;;;18.26;46.17;95149.59;4671108;29;20727;-82
2021/05/20 10:01:23;;;;;;;1.58;1.10;;;18.40;65.90;;;17.99;43.58;95134.19;5150813;27;20601;-81
2021/05/20 10:03:56;;;;;;;1.52;1.42;;;18.30;64.30;;;17.70;44.34;95139.34;5091596;28;20573;-82
2021/05/20 10:06:38;;;;;;;2.72;1.40;;;18.10;63.90;;;17.49;45.55;95137.25;5106700;28;20584;-82
2021/05/20 10:14:27;;;;;;;2.03;1.63;;;17.70;65.30;;;17.16;47.63;95126.16;5040591;28;20241;-81
2021/05/20 10:16:55;;;;;;;2.80;1.30;;;17.60;66.00;;;17.21;47.26;95125.47;5017160;28;20302;-82
2021/05/20 10:19:22;;;;;;;1.70;1.40;;;17.40;65.50;;;17.19;47.28;95120.41;4946489;28;20227;-82
2021/05/20 10:21:49;;;;;;;1.65;1.30;;;17.40;65.40;;;17.15;46.65;95129.84;4807400;29;20224;-81
2021/05/20 10:24:16;;;;;;;2.35;1.55;;;17.40;65.60;;;17.11;47.01;95116.25;4792657;29;20923;-82
2021/05/20 10:26:54;;;;;;;2.15;1.40;;;17.30;65.20;;;17.12;46.88;95117.03;5134011;27;20538;-83
2021/05/20 10:29:20;;;;;;;0.90;0.90;;;17.30;65.60;;;17.19;47.07;95112.44;5079715;28;20842;-82
2021/05/20 10:31:47;;;;;;;2.53;1.40;;;17.20;65.70;;;17.29;48.09;95099.44;5058276;28;20297;-81
2021/05/20 10:34:17;;;;;;;1.17;1.10;;;17.30;66.30;;;17.40;47.50;95100.47;5056216;28;20219;-81
2021/05/20 10:37:05;;;;;;;2.05;0.88;;;17.30;66.30;;;17.52;47.07;95105.78;5005550;28;20261;-81
2021/05/20 10:39:32;;;;;;;1.45;1.25;;;17.30;66.00;;;17.60;47.64;95101.97;4887441;29;20227;-81
2021/05/20 10:41:59;;;;;;;1.60;1.23;;;17.40;66.30;;;17.73;47.49;95091.13;4794349;29;20224;-82
2021/05/20 10:44:26;;;;;;;1.38;1.27;;;17.40;66.50;;;17.86;47.45;95089.28;4670305;30;20569;-81
2021/05/20 10:48:53;;;;;;;1.00;0.90;;;17.50;66.30;;;17.88;46.09;95092.50;5135859;27;20662;-83
2021/05/20 10:51:25;;;;;;;0.95;0.95;;;17.70;65.00;;;17.84;46.23;95078.88;5100611;28;20237;-81
2021/05/20 10:54:03;;;;;;;1.10;1.10;;;17.80;64.90;;;17.84;46.21;95083.41;5055981;28;20234;-82
2021/05/20 10:56:49;;;;;;;1.52;1.00;;;17.80;65.40;;;17.75;47.16;95075.00;5040594;28;20698;-82
2021/05/20 10:59:40;;;;;;;1.10;1.10;;;17.80;65.40;;;17.71;46.90;95079.97;4912148;28;20320;-82
2021/05/20 11:02:13;;;;;;;1.35;1.25;;;17.80;65.60;;;17.68;47.05;95074.31;4768476;29;20215;-81
2021/05/20 11:04:42;;;;;;;1.20;1.10;;;17.80;64.70;;;17.70;47.55;95074.88;4690127;30;20226;-81
2021/05/20 11:09:14;;;;;;;1.55;1.30;;;17.80;65.50;;;17.70;46.55;95070.38;5132515;27;20636;-82
2021/05/20 11:11:41;;;;;;;1.30;1.20;;;17.80;65.40;;;17.75;46.81;95070.47;5087726;28;20254;-81
2021/05/20 11:14:13;;;;;;;1.33;1.23;;;17.70;65.50;;;17.82;46.83;95065.06;5067117;28;20234;-81
2021/05/20 11:16:49;;;;;;;2.45;1.35;;;17.70;65.50;;;17.90;46.22;95062.03;5043969;28;20215;-82
2021/05/20 11:19:18;;;;;;;1.38;1.27;;;17.80;65.00;;;17.97;46.23;95058.47;5060053;28;20232;-81
2021/05/20 11:22:04;;;;;;;1.70;1.30;;;17.80;64.80;;;18.05;45.57;95068.72;4955703;28;20360;-82
2021/05/20 11:24:42;;;;;;;1.58;1.15;;;17.90;64.40;;;18.12;45.66;95064.09;4781364;29;20298;-81
2021/05/20 11:30:25;;;;;;;1.60;1.45;;;18.00;65.20;;;18.37;45.22;95061.13;5139829;27;20574;-82
2021/05/20 11:32:54;;;;;;;2.53;1.38;;;18.20;64.80;;;18.44;43.29;95062.84;5100380;28;20275;-83
2021/05/20 11:37:53;;;;;;;1.98;1.40;;;18.40;64.40;;;18.74;43.52;95046.63;5064361;28;20230;-82